Time;durP1;ratioP1;P1;durP2;ratioP2;P2;SDS_P1;SDS_P2;PMS_P1;PMS_P2;Temp;Humidity;BMP_temperature;BMP_pressure;BME280_temperature;BME280_humidity;BME280_pressure;Samples;Min_cycle;Max_cycle;Signal;HPM_P1;HPM_P2
2023/07/25 00:01:06;;;;;;;4.07;1.98;;;15.70;83.60;;;;;;5050876;28;20029;-68
2023/07/25 00:03:32;;;;;;;3.08;1.80;;;15.70;83.60;;;;;;5051809;28;20028;-68
2023/07/25 00:06:01;;;;;;;4.40;1.88;;;15.70;83.60;;;;;;5052205;28;20094;-68
2023/07/25 00:08:26;;;;;;;4.30;2.00;;;15.70;84.10;;;;;;5057864;28;20013;-68
2023/07/25 00:10:52;;;;;;;2.58;1.70;;;15.70;84.10;;;;;;5051649;28;20021;-68
2023/07/25 00:13:17;;;;;;;4.43;1.90;;;15.80;83.40;;;;;;5051714;28;20032;-68
2023/07/25 00:15:43;;;;;;;3.80;1.92;;;15.70;83.40;;;;;;5051770;28;20028;-68
2023/07/25 00:18:08;;;;;;;6.50;2.00;;;15.70;83.50;;;;;;5051824;28;20104;-68
2023/07/25 00:20:34;;;;;;;2.13;1.67;;;15.70;83.50;;;;;;5051853;28;20025;-68
2023/07/25 00:22:59;;;;;;;4.78;2.05;;;15.70;83.50;;;;;;5051533;28;20029;-68
2023/07/25 00:25:25;;;;;;;2.88;1.90;;;15.70;83.50;;;;;;5051257;28;20067;-68
2023/07/25 00:27:50;;;;;;;3.83;1.80;;;15.60;83.60;;;;;;5050325;28;20031;-68
2023/07/25 00:30:16;;;;;;;3.88;2.00;;;15.60;83.60;;;;;;5051303;28;20041;-68
2023/07/25 00:32:42;;;;;;;5.20;1.85;;;15.60;83.60;;;;;;5051397;28;20411;-68
2023/07/25 00:35:08;;;;;;;5.45;2.40;;;15.60;83.60;;;;;;5051242;28;20025;-68
2023/07/25 00:37:33;;;;;;;3.85;1.92;;;15.50;83.70;;;;;;5051544;28;20025;-68
2023/07/25 00:39:59;;;;;;;4.45;1.80;;;15.50;83.90;;;;;;5051195;28;20021;-68
2023/07/25 00:42:25;;;;;;;4.03;2.08;;;15.50;83.90;;;;;;5051140;28;20083;-68
2023/07/25 00:44:51;;;;;;;4.65;2.03;;;15.40;83.90;;;;;;5050824;28;20024;-68
2023/07/25 00:47:21;;;;;;;3.72;1.95;;;15.40;84.00;;;;;;5051090;28;20036;-68
2023/07/25 00:49:48;;;;;;;2.80;1.95;;;15.40;84.00;;;;;;5051346;28;20254;-68
2023/07/25 00:52:15;;;;;;;6.00;2.25;;;15.30;84.10;;;;;;5050849;28;20758;-68
2023/07/25 00:54:48;;;;;;;4.95;2.38;;;15.30;84.30;;;;;;5050903;28;20472;-68
2023/07/25 00:57:17;;;;;;;4.72;2.17;;;15.30;84.40;;;;;;5050996;28;20017;-68
2023/07/25 00:59:43;;;;;;;3.63;1.90;;;15.20;84.50;;;;;;5050919;28;20412;-68
2023/07/25 01:02:10;;;;;;;3.85;2.10;;;15.20;84.70;;;;;;5050983;28;20025;-68
2023/07/25 01:04:39;;;;;;;5.53;2.10;;;15.20;84.80;;;;;;5050892;28;20072;-69
2023/07/25 01:07:05;;;;;;;2.95;2.00;;;15.20;84.70;;;;;;5051255;28;20475;-68
2023/07/25 01:09:42;;;;;;;4.60;2.20;;;15.20;84.70;;;;;;5049215;28;20125;-68
2023/07/25 01:12:09;;;;;;;3.03;1.80;;;15.20;84.70;;;;;;5050427;28;20021;-68
2023/07/25 01:14:36;;;;;;;4.88;2.00;;;15.20;84.70;;;;;;5051097;28;20025;-68
2023/07/25 01:17:13;;;;;;;3.45;2.03;;;15.20;84.70;;;;;;5049653;28;20017;-68
2023/07/25 01:19:42;;;;;;;3.60;2.20;;;15.10;84.70;;;;;;5051608;28;20025;-68
2023/07/25 01:22:11;;;;;;;4.18;2.25;;;15.10;84.70;;;;;;5049639;28;20395;-68
2023/07/25 01:24:42;;;;;;;4.20;2.00;;;15.10;84.70;;;;;;5050326;28;20032;-68
2023/07/25 01:27:07;;;;;;;4.82;2.30;;;15.10;84.70;;;;;;5049273;28;20021;-68
2023/07/25 01:29:33;;;;;;;4.43;2.40;;;15.00;84.60;;;;;;5039391;28;20531;-68
2023/07/25 01:31:59;;;;;;;3.83;2.22;;;15.00;84.60;;;;;;5050290;28;20033;-68
2023/07/25 01:34:24;;;;;;;4.40;2.38;;;15.00;84.60;;;;;;5050140;28;20021;-68
2023/07/25 01:36:50;;;;;;;4.63;2.00;;;15.00;84.50;;;;;;5050394;28;20534;-68
2023/07/25 01:39:15;;;;;;;5.00;2.10;;;15.00;84.50;;;;;;5050487;28;20438;-68
2023/07/25 01:41:43;;;;;;;4.45;2.40;;;15.00;84.50;;;;;;5050029;28;20083;-68
2023/07/25 01:44:09;;;;;;;4.13;2.28;;;14.90;84.60;;;;;;5050532;28;20435;-68
2023/07/25 01:46:34;;;;;;;5.03;2.58;;;15.00;84.70;;;;;;5050172;28;20052;-68
2023/07/25 01:49:00;;;;;;;3.63;2.03;;;14.90;84.80;;;;;;5049899;28;20025;-68
2023/07/25 01:51:26;;;;;;;5.82;2.67;;;14.90;84.80;;;;;;5049969;28;20060;-68
2023/07/25 01:53:53;;;;;;;4.25;2.30;;;14.90;84.90;;;;;;5049987;28;20071;-68
2023/07/25 01:56:20;;;;;;;7.05;2.30;;;14.80;85.00;;;;;;5049719;28;20028;-68
2023/07/25 01:58:45;;;;;;;5.82;2.70;;;14.80;85.20;;;;;;5031858;28;20484;-68
2023/07/25 02:01:11;;;;;;;4.85;2.42;;;14.80;85.20;;;;;;5049816;28;20032;-68
2023/07/25 02:03:36;;;;;;;6.43;2.80;;;14.80;85.20;;;;;;5049624;28;20452;-68
2023/07/25 02:06:03;;;;;;;7.03;2.53;;;14.80;85.20;;;;;;5049666;28;20468;-68
2023/07/25 02:08:29;;;;;;;4.38;2.50;;;14.80;85.20;;;;;;5031717;28;20025;-68
2023/07/25 02:10:54;;;;;;;5.72;2.60;;;14.70;85.20;;;;;;5049589;28;20026;-68
2023/07/25 02:13:20;;;;;;;6.25;2.70;;;14.70;85.30;;;;;;5048487;28;20053;-68
2023/07/25 02:15:45;;;;;;;3.72;2.60;;;14.70;85.40;;;;;;5049077;28;20502;-67
2023/07/25 02:18:11;;;;;;;5.10;2.65;;;14.60;85.50;;;;;;5050360;28;20388;-68
2023/07/25 02:20:36;;;;;;;5.35;3.00;;;14.60;85.60;;;;;;5049546;28;20021;-68
2023/07/25 02:23:02;;;;;;;5.13;2.40;;;14.60;85.70;;;;;;5050567;28;20137;-68
2023/07/25 02:25:29;;;;;;;5.35;2.75;;;14.60;85.70;;;;;;5053477;28;20479;-68
2023/07/25 02:27:55;;;;;;;7.43;2.78;;;14.60;85.80;;;;;;5036204;28;20384;-68
2023/07/25 02:30:21;;;;;;;4.43;2.63;;;14.60;85.80;;;;;;5053431;28;20252;-68
2023/07/25 02:32:47;;;;;;;5.07;2.40;;;14.60;85.80;;;;;;5054073;28;20357;-68
2023/07/25 02:35:14;;;;;;;4.22;2.60;;;14.60;85.80;;;;;;5053271;28;20052;-67
2023/07/25 02:37:40;;;;;;;5.28;2.70;;;14.60;85.80;;;;;;5053919;28;20448;-68
2023/07/25 02:40:07;;;;;;;5.82;3.13;;;14.60;85.90;;;;;;5053372;28;20021;-67
2023/07/25 02:42:33;;;;;;;6.35;3.00;;;14.50;85.90;;;;;;5053632;28;20029;-68
2023/07/25 02:44:58;;;;;;;5.97;2.88;;;14.50;86.00;;;;;;5053493;28;20075;-68
2023/07/25 02:47:24;;;;;;;4.45;2.75;;;14.50;86.00;;;;;;5053276;28;20039;-68
2023/07/25 02:49:49;;;;;;;4.45;2.95;;;14.50;86.00;;;;;;5053443;28;20089;-68
2023/07/25 02:52:15;;;;;;;3.85;3.00;;;14.50;85.90;;;;;;5053115;28;20088;-68
2023/07/25 02:54:41;;;;;;;5.05;2.80;;;14.50;86.10;;;;;;5053174;28;20047;-68
2023/07/25 02:57:06;;;;;;;4.45;2.92;;;14.50;86.60;;;;;;5035307;28;20029;-68
2023/07/25 02:59:32;;;;;;;3.95;2.60;;;14.50;86.00;;;;;;5053141;28;20024;-68
2023/07/25 03:01:57;;;;;;;4.82;2.72;;;14.50;85.90;;;;;;5052921;28;20162;-68
2023/07/25 03:04:23;;;;;;;4.05;2.70;;;14.50;85.90;;;;;;5052818;28;20025;-68
2023/07/25 03:06:49;;;;;;;4.80;2.72;;;14.50;85.80;;;;;;5052991;28;20033;-68
2023/07/25 03:09:14;;;;;;;3.33;2.60;;;14.50;85.70;;;;;;5052689;28;20025;-68
2023/07/25 03:11:40;;;;;;;4.60;2.35;;;14.50;85.70;;;;;;5035061;28;20021;-68
2023/07/25 03:14:05;;;;;;;4.03;2.70;;;14.50;85.70;;;;;;5052734;28;20120;-68
2023/07/25 03:16:31;;;;;;;4.00;2.72;;;14.50;85.60;;;;;;5052827;28;20057;-68
2023/07/25 03:18:57;;;;;;;5.03;2.83;;;14.50;85.60;;;;;;5053264;28;20029;-68
2023/07/25 03:21:22;;;;;;;3.85;2.42;;;14.40;85.60;;;;;;5052821;28;20067;-68
2023/07/25 03:23:48;;;;;;;3.33;2.30;;;14.40;85.70;;;;;;5052798;28;20417;-68
2023/07/25 03:26:13;;;;;;;6.18;2.63;;;14.40;85.90;;;;;;5052779;28;20052;-68
2023/07/25 03:28:39;;;;;;;4.80;2.90;;;14.40;85.80;;;;;;5052538;28;20433;-68
2023/07/25 03:31:05;;;;;;;4.90;3.00;;;14.40;85.90;;;;;;5052515;28;20105;-68
2023/07/25 03:33:31;;;;;;;5.05;2.30;;;14.40;86.00;;;;;;5052182;28;20121;-68
2023/07/25 03:35:56;;;;;;;6.35;2.95;;;14.40;86.00;;;;;;5052625;28;20473;-68
2023/07/25 03:38:22;;;;;;;5.10;2.92;;;14.40;86.10;;;;;;5052765;28;20469;-68
2023/07/25 03:40:48;;;;;;;5.72;2.85;;;14.40;86.10;;;;;;5052731;28;20036;-68
2023/07/25 03:43:13;;;;;;;4.07;2.60;;;14.40;86.20;;;;;;5052664;28;20025;-68
2023/07/25 03:45:39;;;;;;;6.30;2.88;;;14.30;86.30;;;;;;5052887;28;20096;-68
2023/07/25 03:48:05;;;;;;;4.53;2.50;;;14.40;86.30;;;;;;5053114;28;20418;-69
2023/07/25 03:50:31;;;;;;;4.63;2.50;;;14.40;86.20;;;;;;5052318;28;20100;-68
2023/07/25 03:53:00;;;;;;;4.85;2.83;;;14.40;86.10;;;;;;5052311;28;20017;-68
2023/07/25 03:55:25;;;;;;;6.53;2.70;;;14.40;86.00;;;;;;5052345;28;20105;-68
2023/07/25 03:57:51;;;;;;;3.35;2.38;;;14.40;85.90;;;;;;5052208;28;20045;-68
2023/07/25 04:00:17;;;;;;;4.45;2.70;;;14.40;85.80;;;;;;5052226;28;20431;-68
2023/07/25 04:02:43;;;;;;;6.70;2.72;;;14.40;85.80;;;;;;5052203;28;20543;-68
2023/07/25 04:05:08;;;;;;;6.15;2.60;;;14.40;85.80;;;;;;5052020;28;20188;-68
2023/07/25 04:07:34;;;;;;;5.35;2.50;;;14.40;85.80;;;;;;5052082;28;20024;-68
2023/07/25 04:10:00;;;;;;;3.80;2.55;;;14.40;86.40;;;;;;5051938;28;20372;-68
2023/07/25 04:12:26;;;;;;;4.63;2.47;;;14.40;85.80;;;;;;5051419;28;20025;-68
2023/07/25 04:14:52;;;;;;;6.20;2.47;;;14.40;86.10;;;;;;5033806;28;20029;-68
2023/07/25 04:17:17;;;;;;;4.30;2.20;;;14.40;86.10;;;;;;5051272;28;20021;-68
2023/07/25 04:19:43;;;;;;;5.88;2.63;;;14.40;86.00;;;;;;5051691;28;20107;-68
2023/07/25 04:22:08;;;;;;;6.15;2.63;;;14.40;86.00;;;;;;5051832;28;20036;-68
2023/07/25 04:24:34;;;;;;;6.45;2.53;;;14.40;86.10;;;;;;5051649;28;20468;-68
2023/07/25 04:27:00;;;;;;;4.30;2.40;;;14.40;86.20;;;;;;5051573;28;20285;-68
2023/07/25 04:29:25;;;;;;;4.53;2.58;;;14.40;86.20;;;;;;5051402;28;20107;-68
2023/07/25 04:31:51;;;;;;;3.70;2.40;;;14.40;86.10;;;;;;5051416;28;20021;-68
2023/07/25 04:34:17;;;;;;;5.22;2.25;;;14.50;86.20;;;;;;5051135;28;20013;-68
2023/07/25 04:36:42;;;;;;;6.57;2.55;;;14.40;86.10;;;;;;5051183;28;20671;-68
2023/07/25 04:39:08;;;;;;;6.85;2.78;;;14.50;86.20;;;;;;5051190;28;20095;-68
2023/07/25 04:41:34;;;;;;;7.75;3.00;;;14.40;86.20;;;;;;5051331;28;20031;-68
2023/07/25 04:43:59;;;;;;;6.53;2.70;;;14.50;86.30;;;;;;5051002;28;20040;-68
2023/07/25 04:46:25;;;;;;;5.03;2.55;;;14.50;86.20;;;;;;5050772;28;20036;-68
2023/07/25 04:48:50;;;;;;;7.65;2.38;;;14.50;86.20;;;;;;5051079;28;20216;-68
2023/07/25 04:51:16;;;;;;;5.72;2.80;;;14.50;86.30;;;;;;5051173;28;20066;-68
2023/07/25 04:53:41;;;;;;;5.65;2.72;;;14.50;86.20;;;;;;5050954;28;20021;-68
2023/07/25 04:56:07;;;;;;;3.97;2.70;;;14.50;86.00;;;;;;5051017;28;20025;-68
2023/07/25 04:58:33;;;;;;;5.20;2.53;;;14.60;86.00;;;;;;5050903;28;20052;-68
2023/07/25 05:00:58;;;;;;;5.55;3.00;;;14.60;86.00;;;;;;5050766;28;20025;-68
2023/07/25 05:03:25;;;;;;;5.13;2.83;;;14.60;85.80;;;;;;5050705;28;20549;-68
2023/07/25 05:05:52;;;;;;;4.80;2.90;;;14.70;86.40;;;;;;5050682;28;20029;-68
2023/07/25 05:08:17;;;;;;;6.38;3.03;;;14.80;85.70;;;;;;5051001;28;20382;-68
2023/07/25 05:10:43;;;;;;;5.32;2.90;;;14.80;85.50;;;;;;5050629;28;20021;-68
2023/07/25 05:13:08;;;;;;;6.75;3.00;;;14.90;85.40;;;;;;5050530;28;20120;-69
2023/07/25 05:15:34;;;;;;;4.47;2.88;;;14.90;85.40;;;;;;5050448;28;20021;-68
2023/07/25 05:17:59;;;;;;;5.65;2.83;;;15.00;85.30;;;;;;5050601;28;20048;-68
2023/07/25 05:20:25;;;;;;;5.55;2.92;;;15.00;85.30;;;;;;5050527;28;20064;-68
2023/07/25 05:22:51;;;;;;;6.07;2.67;;;15.10;85.30;;;;;;5050351;28;20032;-68
2023/07/25 05:25:16;;;;;;;6.75;3.10;;;15.10;85.10;;;;;;5050301;28;20025;-68
2023/07/25 05:27:42;;;;;;;6.28;3.05;;;15.20;84.80;;;;;;5043714;28;20565;-68
2023/07/25 05:30:07;;;;;;;7.07;3.50;;;15.30;84.70;;;;;;5040067;28;20431;-68
2023/07/25 05:32:33;;;;;;;6.38;3.10;;;15.30;84.50;;;;;;5047696;28;20530;-68
2023/07/25 05:34:59;;;;;;;5.40;2.90;;;15.30;84.40;;;;;;5048385;28;20104;-68
2023/07/25 05:37:34;;;;;;;8.60;3.60;;;15.40;84.40;;;;;;5050056;28;20450;-68
2023/07/25 05:39:59;;;;;;;4.88;2.88;;;15.50;84.30;;;;;;5049916;28;20075;-68
2023/07/25 05:42:25;;;;;;;6.53;3.10;;;16.40;83.30;;;;;;5049974;28;20021;-68
2023/07/25 05:44:50;;;;;;;5.15;2.95;;;16.90;80.80;;;;;;5065243;28;20517;-68
2023/07/25 05:47:16;;;;;;;3.80;2.80;;;17.40;79.60;;;;;;5049917;28;20291;-68
2023/07/25 05:49:42;;;;;;;4.20;2.70;;;18.10;77.50;;;;;;5049689;28;20070;-68
2023/07/25 05:52:07;;;;;;;5.15;2.97;;;18.20;75.50;;;;;;5050028;28;20096;-68
2023/07/25 05:54:33;;;;;;;5.25;3.38;;;17.90;75.20;;;;;;5049747;28;20044;-68
2023/07/25 05:57:00;;;;;;;5.88;3.25;;;17.80;75.50;;;;;;5049972;28;20040;-68
2023/07/25 05:59:26;;;;;;;4.07;2.67;;;17.70;75.80;;;;;;5049608;28;20028;-68
2023/07/25 06:01:51;;;;;;;5.60;2.90;;;18.40;74.90;;;;;;5049744;28;20510;-68
2023/07/25 06:04:17;;;;;;;7.10;3.28;;;18.90;72.90;;;;;;5049730;28;20098;-68
2023/07/25 06:06:43;;;;;;;8.30;3.15;;;19.20;71.90;;;;;;5049907;28;20586;-68
2023/07/25 06:09:08;;;;;;;5.15;3.53;;;19.40;70.90;;;;;;5049673;28;20376;-68
2023/07/25 06:11:34;;;;;;;6.82;3.25;;;19.50;70.60;;;;;;5049788;28;20017;-68
2023/07/25 06:14:00;;;;;;;6.13;2.60;;;19.10;70.90;;;;;;5049870;28;20480;-68
2023/07/25 06:16:25;;;;;;;6.05;2.95;;;19.00;71.50;;;;;;5049957;28;20364;-68
2023/07/25 06:18:51;;;;;;;4.22;2.80;;;18.80;72.00;;;;;;5049853;28;20017;-68
2023/07/25 06:21:16;;;;;;;4.65;2.67;;;18.70;72.50;;;;;;5050137;28;20029;-68
2023/07/25 06:23:42;;;;;;;5.47;2.85;;;18.50;73.10;;;;;;5049833;28;20104;-68
2023/07/25 06:26:08;;;;;;;4.90;2.80;;;18.20;73.90;;;;;;5049884;28;20028;-68
2023/07/25 06:28:33;;;;;;;5.65;2.60;;;18.20;74.70;;;;;;5049458;28;20424;-68
2023/07/25 06:30:59;;;;;;;3.83;2.30;;;18.50;74.10;;;;;;5049671;28;20074;-68
2023/07/25 06:33:25;;;;;;;5.18;3.00;;;18.70;73.90;;;;;;5049206;28;20027;-68
2023/07/25 06:35:50;;;;;;;3.88;2.97;;;19.10;72.90;;;;;;5049639;28;20025;-68
2023/07/25 06:38:16;;;;;;;4.93;2.70;;;19.20;72.30;;;;;;5049717;28;20032;-68
2023/07/25 06:40:41;;;;;;;6.97;2.60;;;19.40;72.20;;;;;;5049457;28;20074;-68
2023/07/25 06:43:07;;;;;;;5.65;2.67;;;19.50;72.30;;;;;;5048012;28;20036;-68
2023/07/25 06:45:32;;;;;;;5.32;2.55;;;19.40;72.50;;;;;;5049459;28;20032;-68
2023/07/25 06:47:58;;;;;;;5.75;2.50;;;19.20;73.20;;;;;;5049420;28;20061;-68
2023/07/25 06:50:24;;;;;;;5.50;2.47;;;19.00;73.80;;;;;;5049448;28;20368;-68
2023/07/25 06:52:49;;;;;;;6.90;2.50;;;19.10;74.10;;;;;;5049303;28;20039;-68
2023/07/25 06:55:18;;;;;;;4.55;2.38;;;19.30;73.70;;;;;;5049154;28;20025;-68
2023/07/25 06:57:45;;;;;;;5.43;2.28;;;19.50;73.40;;;;;;5049307;28;20017;-68
2023/07/25 07:00:11;;;;;;;4.45;2.13;;;19.50;72.90;;;;;;5049309;28;20052;-68
2023/07/25 07:02:36;;;;;;;6.18;2.30;;;19.50;72.40;;;;;;5049738;28;20056;-68
2023/07/25 07:05:02;;;;;;;3.40;2.20;;;19.20;72.30;;;;;;5049140;28;20029;-68
2023/07/25 07:07:27;;;;;;;4.93;2.40;;;19.00;72.90;;;;;;5049082;28;20074;-68
2023/07/25 07:09:53;;;;;;;3.78;1.92;;;18.80;73.40;;;;;;5051181;28;20027;-68
2023/07/25 07:12:18;;;;;;;3.30;1.90;;;18.70;73.90;;;;;;5052940;28;20021;-68
2023/07/25 07:14:44;;;;;;;3.55;2.03;;;18.60;74.00;;;;;;5053077;28;20088;-68
2023/07/25 07:17:10;;;;;;;3.72;1.95;;;18.60;74.30;;;;;;5085203;28;20169;-68
2023/07/25 07:19:35;;;;;;;4.28;1.95;;;18.50;74.40;;;;;;5053025;28;20056;-68
2023/07/25 07:22:01;;;;;;;3.35;1.70;;;18.50;74.40;;;;;;5052764;28;20044;-68
2023/07/25 07:24:26;;;;;;;2.78;1.58;;;18.50;74.50;;;;;;5051167;28;20547;-68
2023/07/25 07:26:52;;;;;;;5.50;1.80;;;18.60;74.20;;;;;;5052697;28;20029;-68
2023/07/25 07:29:18;;;;;;;4.75;1.65;;;18.70;74.20;;;;;;5052949;28;20090;-68
2023/07/25 07:31:43;;;;;;;4.18;1.35;;;18.90;74.20;;;;;;5052798;28;20067;-68
2023/07/25 07:34:14;;;;;;;3.67;1.60;;;19.10;73.70;;;;;;5052150;28;20060;-68
2023/07/25 07:36:41;;;;;;;3.42;1.40;;;19.30;72.80;;;;;;5052136;28;20017;-68
2023/07/25 07:39:06;;;;;;;3.25;1.20;;;19.50;72.40;;;;;;5052759;28;20099;-68
2023/07/25 07:41:32;;;;;;;4.50;1.45;;;19.70;71.90;;;;;;5052602;28;20155;-68
2023/07/25 07:43:57;;;;;;;3.05;1.10;;;19.80;71.20;;;;;;5033055;28;20028;-68
2023/07/25 07:46:23;;;;;;;3.28;1.15;;;20.00;70.90;;;;;;5044220;28;20544;-68
2023/07/25 07:48:49;;;;;;;3.20;1.40;;;20.10;70.00;;;;;;5042602;28;20028;-68
2023/07/25 07:51:14;;;;;;;3.25;1.30;;;20.00;69.60;;;;;;5040998;28;20017;-68
2023/07/25 07:53:40;;;;;;;5.13;1.38;;;20.00;69.50;;;;;;5041675;28;20020;-68
2023/07/25 07:56:07;;;;;;;4.60;1.20;;;20.00;69.10;;;;;;5042075;28;20048;-68
2023/07/25 07:58:32;;;;;;;2.45;1.20;;;20.00;69.00;;;;;;5030920;28;20013;-68
2023/07/25 08:00:58;;;;;;;1.98;0.90;;;20.10;69.40;;;;;;5042214;28;20021;-68
2023/07/25 08:03:24;;;;;;;3.47;1.02;;;20.00;68.70;;;;;;5042055;28;20017;-68
2023/07/25 08:05:56;;;;;;;3.25;1.10;;;20.00;68.70;;;;;;5040011;28;20056;-68
2023/07/25 08:08:22;;;;;;;2.90;1.13;;;20.00;68.70;;;;;;5041307;28;20083;-68
2023/07/25 08:10:47;;;;;;;3.10;1.00;;;20.10;68.20;;;;;;5042004;28;20021;-68
2023/07/25 08:13:13;;;;;;;5.45;1.30;;;20.10;67.60;;;;;;5030777;28;20450;-68
2023/07/25 08:15:38;;;;;;;3.08;1.33;;;20.10;67.50;;;;;;5041644;28;20479;-70
2023/07/25 08:18:04;;;;;;;2.30;1.02;;;20.00;67.50;;;;;;5041651;28;20021;-68
2023/07/25 08:20:30;;;;;;;3.50;1.17;;;19.90;67.30;;;;;;5039120;28;20471;-68
2023/07/25 08:22:55;;;;;;;2.38;0.95;;;19.70;65.80;;;;;;5041801;28;20361;-68
2023/07/25 08:25:21;;;;;;;2.15;0.80;;;19.70;65.80;;;;;;5041018;28;20025;-68
2023/07/25 08:27:46;;;;;;;3.53;0.95;;;19.90;65.70;;;;;;5046062;28;20506;-69
2023/07/25 08:30:12;;;;;;;2.03;0.80;;;20.00;65.60;;;;;;5047392;28;20036;-68
2023/07/25 08:32:38;;;;;;;3.20;0.95;;;20.00;64.90;;;;;;5046928;28;20104;-68
2023/07/25 08:35:04;;;;;;;2.78;0.95;;;20.00;64.30;;;;;;5043456;28;20028;-69
2023/07/25 08:37:29;;;;;;;2.70;1.10;;;20.00;64.70;;;;;;5051394;28;20146;-69
2023/07/25 08:39:55;;;;;;;3.20;1.00;;;20.10;64.70;;;;;;5051844;28;20018;-68
2023/07/25 08:42:25;;;;;;;5.82;1.40;;;20.30;64.80;;;;;;5053846;28;20025;-68
2023/07/25 08:44:53;;;;;;;2.10;1.00;;;20.50;64.30;;;;;;5047700;28;20020;-68
2023/07/25 08:47:27;;;;;;;3.30;1.15;;;20.80;64.20;;;;;;5033887;28;20124;-68
2023/07/25 08:49:56;;;;;;;4.07;1.00;;;20.80;63.30;;;;;;5048495;28;20017;-68
2023/07/25 08:52:28;;;;;;;3.47;1.10;;;20.80;63.60;;;;;;5051065;28;20020;-68
2023/07/25 08:54:54;;;;;;;1.80;0.98;;;20.60;63.90;;;;;;5049764;28;20387;-69
2023/07/25 08:57:21;;;;;;;1.63;0.82;;;20.40;64.60;;;;;;5049494;28;20017;-69
2023/07/25 08:59:50;;;;;;;2.85;1.08;;;20.20;64.90;;;;;;5047997;28;20025;-69
2023/07/25 09:02:16;;;;;;;3.17;1.15;;;20.10;65.40;;;;;;5049193;28;20053;-68
2023/07/25 09:04:45;;;;;;;3.25;0.90;;;20.00;65.60;;;;;;5049274;28;20098;-68
2023/07/25 09:07:11;;;;;;;3.85;1.00;;;19.90;65.70;;;;;;5048240;28;20472;-68
2023/07/25 09:09:36;;;;;;;3.17;0.85;;;19.90;65.60;;;;;;5049700;28;20036;-68
2023/07/25 09:12:02;;;;;;;2.47;0.90;;;19.80;65.50;;;;;;5049051;28;20025;-68
2023/07/25 09:14:28;;;;;;;2.83;0.82;;;19.80;65.30;;;;;;5050462;28;20538;-69
2023/07/25 09:16:54;;;;;;;2.17;0.70;;;19.70;64.60;;;;;;5050724;28;20060;-68
2023/07/25 09:19:19;;;;;;;1.17;0.60;;;19.70;64.40;;;;;;5048819;28;20041;-68
2023/07/25 09:21:53;;;;;;;1.42;0.73;;;19.70;64.10;;;;;;5051099;28;20025;-68
2023/07/25 09:24:18;;;;;;;1.88;0.80;;;19.70;63.60;;;;;;5050290;28;20112;-69
2023/07/25 09:26:49;;;;;;;1.35;0.80;;;19.90;63.60;;;;;;5049303;28;20551;-69
2023/07/25 09:29:15;;;;;;;1.58;0.77;;;20.10;62.40;;;;;;5051497;28;20112;-68
2023/07/25 09:31:45;;;;;;;2.13;0.70;;;20.30;61.90;;;;;;5048732;28;20025;-68
2023/07/25 09:34:17;;;;;;;1.58;0.70;;;20.40;60.90;;;;;;5049270;28;20025;-68
2023/07/25 09:36:50;;;;;;;1.45;0.70;;;20.60;60.30;;;;;;5033743;28;20013;-68
2023/07/25 09:39:16;;;;;;;1.00;0.60;;;20.70;60.00;;;;;;5048722;28;20310;-68
2023/07/25 09:41:43;;;;;;;1.75;0.80;;;20.80;59.60;;;;;;5052196;28;20112;-68
2023/07/25 09:44:09;;;;;;;1.77;0.70;;;21.00;59.30;;;;;;5048577;28;20040;-69
2023/07/25 09:46:34;;;;;;;1.80;0.80;;;21.30;59.20;;;;;;5051668;28;20017;-68
2023/07/25 09:49:00;;;;;;;2.20;0.80;;;21.50;56.90;;;;;;5052469;28;20053;-68
2023/07/25 09:51:26;;;;;;;2.00;0.73;;;21.50;56.30;;;;;;5048422;28;20461;-68
2023/07/25 09:53:53;;;;;;;2.20;0.80;;;21.30;55.50;;;;;;5052174;28;20025;-69
2023/07/25 09:56:23;;;;;;;1.55;0.57;;;21.20;55.60;;;;;;5048228;28;20029;-68
2023/07/25 09:58:49;;;;;;;1.45;0.77;;;21.30;56.00;;;;;;5048625;28;20495;-68
2023/07/25 10:01:15;;;;;;;1.17;0.50;;;21.30;55.60;;;;;;5048522;28;20025;-68
2023/07/25 10:03:45;;;;;;;0.98;0.60;;;21.30;55.80;;;;;;5033729;28;20031;-68
2023/07/25 10:06:14;;;;;;;1.80;0.57;;;21.20;56.00;;;;;;5047640;28;20044;-68
2023/07/25 10:08:41;;;;;;;1.30;0.70;;;21.20;55.60;;;;;;5052279;28;20021;-68
2023/07/25 10:11:08;;;;;;;2.25;0.70;;;21.10;55.10;;;;;;5050589;28;20024;-68
2023/07/25 10:13:33;;;;;;;2.63;0.65;;;21.20;54.40;;;;;;5031791;28;20566;-68
2023/07/25 10:16:01;;;;;;;1.75;0.63;;;21.40;55.00;;;;;;5047880;28;20096;-68
2023/07/25 10:18:27;;;;;;;0.75;0.50;;;21.50;54.40;;;;;;5030486;28;20484;-68
2023/07/25 10:20:54;;;;;;;2.35;0.65;;;21.60;54.60;;;;;;5029420;28;20025;-68
2023/07/25 10:23:29;;;;;;;3.15;0.70;;;21.60;53.80;;;;;;5046653;28;20491;-68
2023/07/25 10:25:55;;;;;;;1.13;0.57;;;21.60;53.60;;;;;;5049060;28;20025;-68
2023/07/25 10:28:24;;;;;;;3.92;0.85;;;21.50;53.70;;;;;;5050827;28;20444;-68
2023/07/25 10:30:52;;;;;;;1.83;0.70;;;21.50;53.90;;;;;;5047437;28;20021;-68
2023/07/25 10:33:17;;;;;;;1.70;0.73;;;21.50;54.20;;;;;;5049451;28;20032;-68
2023/07/25 10:35:46;;;;;;;1.70;0.70;;;21.50;53.60;;;;;;5044360;28;20021;-68
2023/07/25 10:38:32;;;;;;;1.08;0.65;;;21.60;52.80;;;;;;5047697;28;20036;-68
2023/07/25 10:41:00;;;;;;;1.35;0.50;;;21.50;51.90;;;;;;5050559;28;20082;-68
2023/07/25 10:43:46;;;;;;;1.50;0.80;;;21.60;52.10;;;;;;5047809;28;20049;-68
2023/07/25 10:46:15;;;;;;;2.03;0.70;;;21.70;51.90;;;;;;5041060;28;20699;-68
2023/07/25 10:49:09;;;;;;;1.63;0.50;;;21.70;51.10;;;;;;5051821;28;20025;-68
2023/07/25 10:51:55;;;;;;;2.10;0.60;;;21.80;51.60;;;;;;5052739;28;20095;-69
2023/07/25 10:54:22;;;;;;;2.03;0.82;;;22.10;51.90;;;;;;5052686;28;20056;-68
2023/07/25 10:57:14;;;;;;;2.28;0.60;;;22.20;51.60;;;;;;5051884;28;20025;-69
2023/07/25 10:59:56;;;;;;;;;;;22.30;51.10;;;;;;5053814;28;20033;-69
2023/07/25 11:02:36;;;;;;;1.23;0.73;;;22.50;51.40;;;;;;5052939;28;19905;-68
2023/07/25 11:05:13;;;;;;;1.63;0.80;;;22.30;51.30;;;;;;5053250;28;20082;-68
2023/07/25 11:07:59;;;;;;;1.50;0.50;;;22.10;50.90;;;;;;5051179;28;20672;-68
2023/07/25 11:10:27;;;;;;;1.52;0.55;;;22.00;50.50;;;;;;5051062;28;20547;-68
2023/07/25 11:12:57;;;;;;;1.33;0.70;;;22.00;50.90;;;;;;5051614;28;20045;-68
2023/07/25 11:15:24;;;;;;;1.60;0.60;;;22.10;51.20;;;;;;5051336;28;20029;-68
2023/07/25 11:17:49;;;;;;;2.90;0.70;;;22.20;50.70;;;;;;5051620;28;20032;-68
2023/07/25 11:20:24;;;;;;;1.67;0.52;;;22.20;50.80;;;;;;5051087;28;20391;-68
2023/07/25 11:22:50;;;;;;;1.55;0.60;;;22.10;50.50;;;;;;5051490;28;20056;-68
2023/07/25 11:25:17;;;;;;;1.45;0.50;;;21.90;50.50;;;;;;5052037;28;20424;-68
2023/07/25 11:27:47;;;;;;;0.95;0.57;;;21.90;50.90;;;;;;5050733;28;20108;-68
2023/07/25 11:30:16;;;;;;;1.48;0.60;;;21.90;49.20;;;;;;5050356;28;20033;-68
2023/07/25 11:32:52;;;;;;;1.13;0.50;;;22.00;49.50;;;;;;5053283;28;20021;-68
2023/07/25 11:35:18;;;;;;;0.88;0.40;;;22.10;49.60;;;;;;5054672;28;20545;-68
2023/07/25 11:37:46;;;;;;;1.02;0.50;;;22.20;49.60;;;;;;5050667;28;20028;-68
2023/07/25 11:40:17;;;;;;;0.95;0.43;;;22.40;49.80;;;;;;5054984;28;20017;-68
2023/07/25 11:42:44;;;;;;;0.50;0.40;;;22.60;49.30;;;;;;5050530;28;20143;-68
2023/07/25 11:45:12;;;;;;;1.08;0.63;;;22.90;49.20;;;;;;5050846;28;20486;-68
2023/07/25 11:47:43;;;;;;;0.88;0.55;;;22.90;48.60;;;;;;5050603;28;20032;-68
2023/07/25 11:50:10;;;;;;;0.85;0.45;;;22.80;47.80;;;;;;5050452;28;20040;-69
2023/07/25 11:52:39;;;;;;;0.63;0.40;;;22.70;47.80;;;;;;5050678;28;20020;-68
2023/07/25 11:55:07;;;;;;;1.20;0.50;;;22.70;48.20;;;;;;5051223;28;20496;-68
2023/07/25 11:57:33;;;;;;;1.05;0.50;;;22.70;48.20;;;;;;5050312;28;20021;-68
2023/07/25 11:59:59;;;;;;;1.02;0.50;;;22.60;48.00;;;;;;5051159;28;20112;-68
2023/07/25 12:02:26;;;;;;;1.50;0.50;;;22.60;48.30;;;;;;5053558;28;20029;-67
2023/07/25 12:04:52;;;;;;;1.65;0.50;;;22.70;47.20;;;;;;5053961;28;20024;-68
2023/07/25 12:07:18;;;;;;;1.08;0.60;;;22.60;47.50;;;;;;5050213;28;20100;-68
2023/07/25 12:09:51;;;;;;;1.50;0.50;;;22.70;47.40;;;;;;5054264;28;20112;-68
2023/07/25 12:12:17;;;;;;;1.10;0.50;;;22.80;47.30;;;;;;5051006;28;20103;-69
2023/07/25 12:14:54;;;;;;;0.85;0.60;;;23.00;47.00;;;;;;5052844;28;20087;-68
2023/07/25 12:17:19;;;;;;;0.77;0.60;;;23.00;47.10;;;;;;5049753;28;20090;-68
2023/07/25 12:19:55;;;;;;;0.57;0.47;;;22.90;47.00;;;;;;5049963;28;20061;-69
2023/07/25 12:22:21;;;;;;;1.85;0.73;;;22.80;47.30;;;;;;5052199;28;20036;-68
2023/07/25 12:24:47;;;;;;;1.65;0.70;;;22.60;47.50;;;;;;5049791;28;20021;-69
2023/07/25 12:27:17;;;;;;;1.85;0.65;;;22.40;47.80;;;;;;5052742;28;20029;-69
2023/07/25 12:29:43;;;;;;;1.27;0.70;;;22.30;48.10;;;;;;5049784;28;20071;-68
2023/07/25 12:32:08;;;;;;;1.10;0.50;;;22.40;48.50;;;;;;5052799;28;20017;-68
2023/07/25 12:34:34;;;;;;;2.25;0.70;;;22.70;48.80;;;;;;5034789;28;20031;-67
2023/07/25 12:37:02;;;;;;;1.30;0.60;;;23.00;48.60;;;;;;5049791;28;20494;-68
2023/07/25 12:39:29;;;;;;;1.58;0.80;;;23.20;47.90;;;;;;5035392;28;20084;-68
2023/07/25 12:41:55;;;;;;;2.03;0.82;;;23.20;48.60;;;;;;5049857;28;20067;-67
2023/07/25 12:44:21;;;;;;;2.05;0.60;;;23.00;49.40;;;;;;5053279;28;20036;-68
2023/07/25 12:46:46;;;;;;;1.90;0.50;;;22.90;50.00;;;;;;5053880;28;20039;-69